createdAt,value
2023-04-05T00:01:07.829Z,62.00
2023-04-05T00:07:54.458Z,62.00
2023-04-05T00:14:36.803Z,62.53
2023-04-05T00:21:23.142Z,62.37
2023-04-05T00:28:05.610Z,62.26
2023-04-05T00:34:47.826Z,62.47
2023-04-05T00:41:30.111Z,62.31
2023-04-05T00:48:12.747Z,61.86
2023-04-05T00:54:55.021Z,61.93
2023-04-05T01:01:41.200Z,61.50
2023-04-05T01:08:31.552Z,61.71
2023-04-05T01:15:14.094Z,61.81
2023-04-05T01:22:38.181Z,61.32
2023-04-05T01:29:32.169Z,61.12
2023-04-05T01:36:28.821Z,61.22
2023-04-05T01:43:17.997Z,61.78
2023-04-05T01:50:00.222Z,61.63
2023-04-05T01:56:42.648Z,61.09
2023-04-05T02:03:25.870Z,60.80
2023-04-05T02:10:09.327Z,60.80
2023-04-05T02:16:55.773Z,61.23
2023-04-05T02:23:39.948Z,61.38
2023-04-05T02:30:22.091Z,61.44
2023-04-05T02:37:04.481Z,61.63
2023-04-05T02:43:46.844Z,61.73
2023-04-05T02:50:29.036Z,62.36
2023-04-05T02:57:11.767Z,62.30
2023-04-05T03:04:04.468Z,62.80
2023-04-05T03:10:51.075Z,63.00
2023-04-05T03:17:33.488Z,63.04
2023-04-05T03:24:18.482Z,63.00
2023-04-05T03:31:01.160Z,62.96
2023-04-05T03:37:43.575Z,63.28
2023-04-05T03:44:25.808Z,63.17
2023-04-05T03:51:09.562Z,62.78
2023-04-05T03:57:53.562Z,62.96
2023-04-05T04:04:44.487Z,63.19
2023-04-05T04:11:27.296Z,63.40
2023-04-05T04:18:10.262Z,63.67
2023-04-05T04:25:12.749Z,63.49
2023-04-05T04:32:22.608Z,63.78
2023-04-05T04:39:39.745Z,64.26
2023-04-05T04:46:43.728Z,64.06
2023-04-05T04:53:31.883Z,64.06
2023-04-05T05:00:18.226Z,64.58
2023-04-05T05:07:01.597Z,64.51
2023-04-05T05:13:43.800Z,64.87
2023-04-05T05:20:33.142Z,64.88
2023-04-05T05:27:15.523Z,64.83
2023-04-05T05:33:57.750Z,64.84
2023-04-05T05:40:40.413Z,64.96
2023-04-05T05:47:22.825Z,64.98
2023-04-05T05:54:05.144Z,64.53
2023-04-05T06:00:49.907Z,64.74
2023-04-05T06:07:36.087Z,64.70
2023-04-05T06:14:19.127Z,64.84
2023-04-05T06:21:01.352Z,65.04
2023-04-05T06:27:43.539Z,64.16
2023-04-05T06:34:25.882Z,61.44
2023-04-05T06:41:08.223Z,60.96
2023-04-05T06:47:50.651Z,60.41
2023-04-05T06:54:34.733Z,60.97
2023-04-05T07:01:17.695Z,60.89
2023-04-05T07:07:59.969Z,62.20
2023-04-05T07:14:42.379Z,62.43
2023-04-05T07:21:24.708Z,61.80
2023-04-05T07:28:07.025Z,61.72
2023-04-05T07:34:49.522Z,59.66
2023-04-05T07:41:31.901Z,58.57
2023-04-05T07:48:13.994Z,57.07
2023-04-05T07:54:56.823Z,54.38
2023-04-05T08:01:38.961Z,53.30
2023-04-05T08:08:21.742Z,51.90
2023-04-05T08:15:04.709Z,50.46
2023-04-05T08:21:46.987Z,50.46
2023-04-05T08:28:29.323Z,50.97
2023-04-05T08:35:11.489Z,50.33
2023-04-05T08:42:18.502Z,50.37
2023-04-05T08:49:06.328Z,50.27
2023-04-05T08:55:56.619Z,49.61
2023-04-05T09:02:39.706Z,49.59
2023-04-05T09:09:22.818Z,50.67
2023-04-05T09:16:06.110Z,50.18
2023-04-05T09:22:48.601Z,49.61
2023-04-05T09:29:31.281Z,48.80
2023-04-05T09:36:19.061Z,48.78
2023-04-05T09:43:01.565Z,48.34
2023-04-05T09:49:44.154Z,48.19
2023-04-05T09:56:28.257Z,49.00
2023-04-05T10:03:10.538Z,49.74
2023-04-05T10:09:52.888Z,50.13
2023-04-05T10:16:59.198Z,49.50
2023-04-05T10:23:46.508Z,49.47
2023-04-05T10:30:46.484Z,49.30
2023-04-05T10:37:48.404Z,49.27
2023-04-05T10:44:33.259Z,48.92
2023-04-05T10:51:16.175Z,49.13
2023-04-05T10:57:59.391Z,49.41
2023-04-05T11:04:42.696Z,49.52
2023-04-05T11:11:27.209Z,49.53
2023-04-05T11:18:09.745Z,49.85
2023-04-05T11:24:58.372Z,50.09
2023-04-05T11:32:06.232Z,50.13
2023-04-05T11:38:48.413Z,50.51
2023-04-05T11:45:32.425Z,50.32
2023-04-05T11:52:21.311Z,50.56
2023-04-05T11:59:03.730Z,49.94
2023-04-05T12:05:51.323Z,48.70
2023-04-05T12:12:40.936Z,48.62
2023-04-05T12:19:23.796Z,48.85
2023-04-05T12:26:08.393Z,48.89
2023-04-05T12:32:55.480Z,48.64
2023-04-05T12:39:38.797Z,48.82
2023-04-05T12:46:21.280Z,48.60
2023-04-05T12:53:07.344Z,48.62
2023-04-05T12:59:49.569Z,48.75
2023-04-05T13:06:32.185Z,48.76
2023-04-05T13:13:16.453Z,48.60
2023-04-05T13:19:58.928Z,48.68
2023-04-05T13:26:41.282Z,48.28
2023-04-05T13:33:23.495Z,48.23
2023-04-05T13:40:09.809Z,47.89
2023-04-05T13:46:51.978Z,48.10
2023-04-05T13:53:34.176Z,48.42
2023-04-05T14:00:16.823Z,47.93
2023-04-05T14:06:59.064Z,47.01
2023-04-05T14:13:41.268Z,47.37
2023-04-05T14:20:23.733Z,48.55
2023-04-05T14:27:06.235Z,48.81
2023-04-05T14:33:48.389Z,49.15
2023-04-05T14:40:30.784Z,49.43
2023-04-05T14:47:12.977Z,49.73
2023-04-05T14:53:56.079Z,49.66
2023-04-05T15:00:38.411Z,49.90
2023-04-05T15:07:20.779Z,49.98
2023-04-05T15:14:03.139Z,50.45
2023-04-05T15:20:45.655Z,50.39
2023-04-05T15:27:27.883Z,50.56
2023-04-05T15:34:10.083Z,50.88
2023-04-05T15:40:52.697Z,51.43
2023-04-05T15:47:34.979Z,51.83
2023-04-05T15:54:19.022Z,52.14
2023-04-05T16:01:01.327Z,51.17
2023-04-05T16:07:44.756Z,51.00
2023-04-05T16:14:27.865Z,51.71
2023-04-05T16:21:10.402Z,51.25
2023-04-05T16:27:52.690Z,51.86
2023-04-05T16:34:34.876Z,52.61
2023-04-05T16:41:17.136Z,53.17
2023-04-05T16:47:59.573Z,53.84
2023-04-05T16:54:41.850Z,53.15
2023-04-05T17:01:25.038Z,53.38
2023-04-05T17:08:07.301Z,53.33
2023-04-05T17:14:49.796Z,53.76
2023-04-05T17:21:32.813Z,54.42
2023-04-05T17:28:15.409Z,54.75
2023-04-05T17:34:57.610Z,55.47
2023-04-05T17:41:39.817Z,55.99
2023-04-05T17:48:22.198Z,56.71
2023-04-05T17:55:05.033Z,57.41
2023-04-05T18:01:51.535Z,58.08
2023-04-05T18:08:34.109Z,58.86
2023-04-05T18:15:18.374Z,59.50
2023-04-05T18:22:00.755Z,60.27
2023-04-05T18:28:43.037Z,61.09
2023-04-05T18:35:27.979Z,61.47
2023-04-05T18:42:10.175Z,62.22
2023-04-05T18:48:55.621Z,62.52
2023-04-05T18:55:37.968Z,63.13
2023-04-05T19:02:20.341Z,63.39
2023-04-05T19:09:02.817Z,63.75
2023-04-05T19:15:46.188Z,63.88
2023-04-05T19:22:28.601Z,64.06
2023-04-05T19:29:10.894Z,64.26
2023-04-05T19:35:54.291Z,64.53
2023-04-05T19:42:36.486Z,65.06
2023-04-05T19:49:39.107Z,65.12
2023-04-05T19:56:32.292Z,65.75
2023-04-05T20:03:32.789Z,65.75
2023-04-05T20:10:16.445Z,66.43
2023-04-05T20:16:59.085Z,66.66
2023-04-05T20:23:43.759Z,67.17
2023-04-05T20:30:25.981Z,67.31
2023-04-05T20:37:11.157Z,67.49
2023-04-05T20:43:54.507Z,67.76
2023-04-05T20:50:37.130Z,67.99
2023-04-05T20:57:19.307Z,68.53
2023-04-05T21:04:01.893Z,68.57
2023-04-05T21:10:44.414Z,68.96
2023-04-05T21:17:26.745Z,69.54
2023-04-05T21:24:09.131Z,69.32
2023-04-05T21:30:52.477Z,69.56
2023-04-05T21:37:35.334Z,70.06
2023-04-05T21:44:17.568Z,70.34
2023-04-05T21:50:59.707Z,70.54
2023-04-05T21:57:41.915Z,70.81
2023-04-05T22:04:26.508Z,71.29
2023-04-05T22:11:08.827Z,72.02
2023-04-05T22:17:51.043Z,71.95
2023-04-05T22:24:52.190Z,72.57
2023-04-05T22:31:53.283Z,72.85
2023-04-05T22:38:54.639Z,72.84
2023-04-05T22:45:56.244Z,73.19
2023-04-05T22:52:38.651Z,73.49
2023-04-05T22:59:23.113Z,74.18
2023-04-05T23:06:05.607Z,73.75
2023-04-05T23:12:48.442Z,74.17
2023-04-05T23:19:49.429Z,73.95
2023-04-05T23:26:31.799Z,74.28
2023-04-05T23:33:32.876Z,74.20
2023-04-05T23:40:33.547Z,74.35
2023-04-05T23:47:16.242Z,74.32
2023-04-05T23:53:58.986Z,74.05
